createdAt,value
2022-10-30T00:00:08.876Z,26.27
2022-10-30T00:00:18.990Z,26.28
2022-10-30T00:00:28.986Z,26.28
2022-10-30T00:00:39.255Z,26.29
2022-10-30T00:00:49.350Z,26.28
2022-10-30T00:00:59.468Z,26.28
2022-10-30T00:01:09.591Z,26.29
2022-10-30T00:01:19.781Z,26.29
2022-10-30T00:01:29.915Z,26.29
2022-10-30T00:01:40.222Z,26.29
2022-10-30T00:01:50.233Z,26.29
2022-10-30T00:02:00.484Z,26.29
2022-10-30T00:02:10.695Z,26.28
2022-10-30T00:02:20.686Z,26.28
2022-10-30T00:02:30.582Z,26.29
2022-10-30T00:02:40.664Z,26.29
2022-10-30T00:02:50.710Z,26.28
2022-10-30T00:03:01.265Z,26.28
2022-10-30T00:03:10.769Z,26.28
2022-10-30T00:03:20.801Z,26.26
2022-10-30T00:03:30.800Z,26.27
2022-10-30T00:03:40.917Z,26.28
2022-10-30T00:03:51.180Z,26.28
2022-10-30T00:04:01.170Z,26.28
2022-10-30T00:04:11.296Z,26.28
2022-10-30T00:04:21.543Z,26.28
2022-10-30T00:04:31.714Z,26.28
2022-10-30T00:04:41.683Z,26.29
2022-10-30T00:04:51.946Z,26.29
2022-10-30T00:05:01.933Z,26.29
2022-10-30T00:05:12.086Z,26.28
2022-10-30T00:05:22.317Z,26.29
2022-10-30T00:05:32.437Z,26.29
2022-10-30T00:05:42.429Z,26.28
2022-10-30T00:05:52.689Z,26.28
2022-10-30T00:06:02.864Z,26.28
2022-10-30T00:06:12.983Z,26.27
2022-10-30T00:06:23.177Z,26.28
2022-10-30T00:06:33.174Z,26.28
2022-10-30T00:06:43.173Z,26.27
2022-10-30T00:06:53.549Z,26.27
2022-10-30T00:07:03.665Z,26.27
2022-10-30T00:07:13.783Z,26.27
2022-10-30T00:07:23.918Z,26.27
2022-10-30T00:07:33.918Z,26.27
2022-10-30T00:07:43.918Z,26.28
2022-10-30T00:07:54.325Z,26.28
2022-10-30T00:08:04.334Z,26.27
2022-10-30T00:08:14.471Z,26.28
2022-10-30T00:08:24.751Z,26.28
2022-10-30T00:08:34.866Z,26.28
2022-10-30T00:08:44.865Z,26.28
2022-10-30T00:08:55.121Z,26.28
2022-10-30T00:09:05.237Z,26.28
2022-10-30T00:09:15.359Z,26.28
2022-10-30T00:09:25.487Z,26.28
2022-10-30T00:09:35.485Z,26.28
2022-10-30T00:09:45.601Z,26.28
2022-10-30T00:09:55.858Z,26.29
2022-10-30T00:10:05.851Z,26.28
2022-10-30T00:10:15.968Z,26.28
2022-10-30T00:10:26.229Z,26.29
2022-10-30T00:10:36.354Z,26.29
2022-10-30T00:10:46.345Z,26.28
2022-10-30T00:10:56.594Z,26.28
2022-10-30T00:11:06.728Z,26.28
2022-10-30T00:11:16.724Z,26.28
2022-10-30T00:11:26.974Z,26.28
2022-10-30T00:11:36.976Z,26.28
2022-10-30T00:11:46.972Z,26.28
2022-10-30T00:11:56.989Z,26.28
2022-10-30T00:12:06.988Z,26.28
2022-10-30T00:12:17.108Z,26.28
2022-10-30T00:12:27.224Z,26.28
2022-10-30T00:12:37.349Z,26.28
2022-10-30T00:12:47.472Z,26.29
2022-10-30T00:12:57.589Z,26.29
2022-10-30T00:13:07.711Z,26.29
2022-10-30T00:13:17.711Z,26.29
2022-10-30T00:13:27.831Z,26.29
2022-10-30T00:13:37.827Z,26.29
2022-10-30T00:13:47.827Z,26.29
2022-10-30T00:13:57.953Z,26.29
2022-10-30T00:14:08.074Z,26.30
2022-10-30T00:14:18.195Z,26.29
2022-10-30T00:14:28.312Z,26.29
2022-10-30T00:14:38.432Z,26.30
2022-10-30T00:14:48.548Z,26.29
2022-10-30T00:14:58.668Z,26.29
2022-10-30T00:15:08.811Z,26.29
2022-10-30T00:15:18.815Z,26.29
2022-10-30T00:15:28.810Z,26.29
2022-10-30T00:15:39.193Z,26.29
2022-10-30T00:15:49.186Z,26.29
2022-10-30T00:15:59.309Z,26.28
2022-10-30T00:16:09.562Z,26.28
2022-10-30T00:16:19.689Z,26.29
2022-10-30T00:16:29.683Z,26.29
2022-10-30T00:16:39.943Z,26.29
2022-10-30T00:16:49.943Z,26.29
2022-10-30T00:16:59.939Z,26.29
2022-10-30T00:17:10.316Z,26.29
2022-10-30T00:17:20.433Z,26.29
2022-10-30T00:17:30.553Z,26.29
2022-10-30T00:17:40.677Z,26.29
2022-10-30T00:17:50.678Z,26.30
2022-10-30T00:18:01.136Z,26.30
2022-10-30T00:18:11.085Z,26.29
2022-10-30T00:18:21.217Z,26.29
2022-10-30T00:18:31.213Z,26.28
2022-10-30T00:18:41.472Z,26.29
2022-10-30T00:18:51.585Z,26.28
2022-10-30T00:19:01.708Z,26.29
2022-10-30T00:19:11.828Z,26.29
2022-10-30T00:19:21.956Z,26.29
2022-10-30T00:19:31.951Z,26.28
2022-10-30T00:19:42.245Z,26.28
2022-10-30T00:19:52.365Z,26.29
2022-10-30T00:20:02.482Z,26.29
2022-10-30T00:20:12.607Z,26.28
2022-10-30T00:20:22.750Z,26.28
2022-10-30T00:20:32.724Z,26.28
2022-10-30T00:20:42.983Z,26.27
2022-10-30T00:20:53.156Z,26.28
2022-10-30T00:21:03.233Z,26.28
2022-10-30T00:21:13.495Z,26.28
2022-10-30T00:21:23.615Z,26.28
2022-10-30T00:21:33.740Z,26.29
2022-10-30T00:21:43.865Z,26.28
2022-10-30T00:21:53.982Z,26.28
2022-10-30T00:22:23.734Z,26.09
2022-10-30T00:22:33.857Z,26.13
2022-10-30T00:22:43.973Z,26.16
2022-10-30T00:22:54.122Z,26.20
2022-10-30T00:23:04.121Z,26.20
2022-10-30T00:23:14.121Z,26.21
2022-10-30T00:23:24.502Z,26.22
2022-10-30T00:23:34.503Z,26.22
2022-10-30T00:23:44.608Z,26.23
2022-10-30T00:23:54.853Z,26.24
2022-10-30T00:24:04.971Z,26.24
2022-10-30T00:24:15.085Z,26.24
2022-10-30T00:24:25.206Z,26.25
2022-10-30T00:24:35.320Z,26.25
2022-10-30T00:24:45.441Z,26.25
2022-10-30T00:24:55.580Z,26.25
2022-10-30T00:25:05.696Z,26.26
2022-10-30T00:25:15.813Z,26.27
2022-10-30T00:25:25.933Z,26.26
2022-10-30T00:25:36.089Z,26.27
2022-10-30T00:25:46.079Z,26.28
2022-10-30T00:25:56.324Z,26.28
2022-10-30T00:26:06.439Z,26.28
2022-10-30T00:26:16.563Z,26.28
2022-10-30T00:26:26.687Z,26.28
2022-10-30T00:26:36.802Z,26.28
2022-10-30T00:26:46.798Z,26.29
2022-10-30T00:26:57.053Z,26.28
2022-10-30T00:27:07.053Z,26.28
2022-10-30T00:27:17.168Z,26.29
2022-10-30T00:27:27.417Z,26.28
2022-10-30T00:27:37.535Z,26.29
2022-10-30T00:27:47.664Z,26.28
2022-10-30T00:27:57.792Z,26.29
2022-10-30T00:28:07.904Z,26.29
2022-10-30T00:28:18.024Z,26.28
2022-10-30T00:28:28.148Z,26.29
2022-10-30T00:28:38.269Z,26.28
2022-10-30T00:28:48.384Z,26.29
2022-10-30T00:28:58.503Z,26.29
2022-10-30T00:29:08.635Z,26.28
2022-10-30T00:29:18.640Z,26.29
2022-10-30T00:29:28.882Z,26.28
2022-10-30T00:29:38.887Z,26.29
2022-10-30T00:29:48.998Z,26.29
2022-10-30T00:29:59.259Z,26.28
2022-10-30T00:30:09.257Z,26.29
2022-10-30T00:30:19.368Z,26.30
2022-10-30T00:30:29.614Z,26.29
2022-10-30T00:30:39.738Z,26.29
2022-10-30T00:30:49.729Z,26.29
2022-10-30T00:30:59.982Z,26.29
2022-10-30T00:31:09.972Z,26.28
2022-10-30T00:31:20.089Z,26.29
2022-10-30T00:31:30.340Z,26.29
2022-10-30T00:31:40.455Z,26.29
2022-10-30T00:31:50.571Z,26.29
2022-10-30T00:32:00.690Z,26.29
2022-10-30T00:32:10.807Z,26.30
2022-10-30T00:32:20.923Z,26.30
2022-10-30T00:32:31.046Z,26.30
2022-10-30T00:32:41.169Z,26.30
2022-10-30T00:32:51.290Z,26.30
2022-10-30T00:33:01.638Z,26.31
2022-10-30T00:33:11.510Z,26.31
2022-10-30T00:33:21.628Z,26.31
2022-10-30T00:33:31.873Z,26.31
2022-10-30T00:33:42.024Z,26.32
2022-10-30T00:33:52.120Z,26.32
2022-10-30T00:34:02.243Z,26.32
2022-10-30T00:34:12.361Z,26.31
2022-10-30T00:34:22.479Z,26.32
2022-10-30T00:34:32.599Z,26.32
2022-10-30T00:34:42.723Z,26.32
2022-10-30T00:34:52.714Z,26.32
2022-10-30T00:35:02.971Z,26.32
2022-10-30T00:35:13.083Z,26.32
2022-10-30T00:35:23.193Z,26.32
2022-10-30T00:35:33.357Z,26.32
2022-10-30T00:35:43.400Z,26.32
2022-10-30T00:35:53.400Z,26.32
2022-10-30T00:36:03.802Z,26.32
2022-10-30T00:36:13.789Z,26.32
2022-10-30T00:36:23.776Z,26.32
2022-10-30T00:36:34.156Z,26.32
2022-10-30T00:36:44.278Z,26.32
2022-10-30T00:36:54.391Z,26.32
2022-10-30T00:37:04.602Z,26.32
2022-10-30T00:37:14.600Z,26.32
2022-10-30T00:37:24.713Z,26.32
2022-10-30T00:37:34.968Z,26.32
2022-10-30T00:37:45.088Z,26.32
2022-10-30T00:37:55.348Z,26.32
2022-10-30T00:38:05.310Z,26.33
2022-10-30T00:38:15.427Z,26.33
2022-10-30T00:38:25.548Z,26.33
2022-10-30T00:38:35.668Z,26.33
2022-10-30T00:38:45.783Z,26.34
2022-10-30T00:38:55.901Z,26.34
2022-10-30T00:39:06.027Z,26.34
2022-10-30T00:39:16.033Z,26.33
2022-10-30T00:39:26.031Z,26.33
2022-10-30T00:39:36.409Z,26.32
2022-10-30T00:39:46.531Z,26.33
2022-10-30T00:39:56.649Z,26.32
2022-10-30T00:40:06.803Z,26.32
2022-10-30T00:40:16.797Z,26.32
2022-10-30T00:40:26.911Z,26.33
2022-10-30T00:40:37.159Z,26.33
2022-10-30T00:40:47.276Z,26.33
2022-10-30T00:40:57.392Z,26.33
2022-10-30T00:41:07.517Z,26.33
2022-10-30T00:41:17.512Z,26.33
2022-10-30T00:41:27.630Z,26.34
2022-10-30T00:41:37.886Z,26.35
2022-10-30T00:41:48.005Z,26.34
2022-10-30T00:41:58.121Z,26.34
2022-10-30T00:42:08.246Z,26.34
2022-10-30T00:42:18.369Z,26.35
2022-10-30T00:42:28.364Z,26.35
2022-10-30T00:42:38.610Z,26.35
2022-10-30T00:42:48.727Z,26.35
2022-10-30T00:42:58.852Z,26.35
2022-10-30T00:43:08.971Z,26.35
2022-10-30T00:43:18.967Z,26.35
2022-10-30T00:43:29.088Z,26.35
2022-10-30T00:43:39.342Z,26.35
2022-10-30T00:43:49.461Z,26.35
2022-10-30T00:43:59.581Z,26.35
2022-10-30T00:44:09.710Z,26.35
2022-10-30T00:44:19.748Z,26.35
2022-10-30T00:44:29.744Z,26.36
2022-10-30T00:44:39.741Z,26.35
2022-10-30T00:44:49.869Z,26.35
2022-10-30T00:44:59.860Z,26.35
2022-10-30T00:45:09.977Z,26.35
2022-10-30T00:45:19.987Z,26.35
2022-10-30T00:45:29.990Z,26.35
2022-10-30T00:45:40.107Z,26.35
2022-10-30T00:45:50.224Z,26.35
2022-10-30T00:46:00.346Z,26.35
2022-10-30T00:46:10.473Z,26.35
2022-10-30T00:46:20.588Z,26.35
2022-10-30T00:46:30.704Z,26.35
2022-10-30T00:46:40.823Z,26.35
2022-10-30T00:46:50.938Z,26.34
2022-10-30T00:47:01.060Z,26.34
2022-10-30T00:47:11.176Z,26.34
2022-10-30T00:47:21.298Z,26.35
2022-10-30T00:47:31.415Z,26.34
2022-10-30T00:47:41.535Z,26.34
2022-10-30T00:47:51.660Z,26.35
2022-10-30T00:48:02.134Z,26.35
2022-10-30T00:48:11.847Z,26.34
2022-10-30T00:48:22.013Z,26.34
2022-10-30T00:48:32.007Z,26.34
2022-10-30T00:48:42.121Z,26.35
2022-10-30T00:48:52.384Z,26.35
2022-10-30T00:49:02.385Z,26.35
2022-10-30T00:49:12.501Z,26.35
2022-10-30T00:49:22.754Z,26.35
2022-10-30T00:49:32.868Z,26.35
2022-10-30T00:49:42.865Z,26.35
2022-10-30T00:49:53.114Z,26.34
2022-10-30T00:50:03.230Z,26.34
2022-10-30T00:50:13.400Z,26.35
2022-10-30T00:50:23.560Z,26.35
2022-10-30T00:50:33.655Z,26.34
2022-10-30T00:50:43.792Z,26.35
2022-10-30T00:50:53.891Z,26.35
2022-10-30T00:51:04.009Z,26.34
2022-10-30T00:51:14.126Z,26.34
2022-10-30T00:51:24.241Z,26.34
2022-10-30T00:51:34.358Z,26.34
2022-10-30T00:51:44.472Z,26.34
2022-10-30T00:51:54.598Z,26.34
2022-10-30T00:52:04.590Z,26.34
2022-10-30T00:52:14.712Z,26.34
2022-10-30T00:52:24.958Z,26.34
2022-10-30T00:52:35.074Z,26.34
2022-10-30T00:52:45.190Z,26.35
2022-10-30T00:52:55.684Z,26.35
2022-10-30T00:53:05.354Z,26.35
2022-10-30T00:53:15.482Z,26.35
2022-10-30T00:53:25.746Z,26.35
2022-10-30T00:53:35.857Z,26.35
2022-10-30T00:53:45.971Z,26.35
2022-10-30T00:53:56.100Z,26.35
2022-10-30T00:54:06.214Z,26.35
2022-10-30T00:54:16.330Z,26.35
2022-10-30T00:54:26.455Z,26.35
2022-10-30T00:54:36.593Z,26.35
2022-10-30T00:54:46.688Z,26.34
2022-10-30T00:54:56.808Z,26.35
2022-10-30T00:55:06.931Z,26.34
2022-10-30T00:55:16.931Z,26.34
2022-10-30T00:55:27.191Z,26.35
2022-10-30T00:55:37.299Z,26.34
2022-10-30T00:55:47.297Z,26.35
2022-10-30T00:55:57.545Z,26.36
2022-10-30T00:56:07.659Z,26.35
2022-10-30T00:56:17.778Z,26.35
2022-10-30T00:56:27.897Z,26.36
2022-10-30T00:56:38.014Z,26.35
2022-10-30T00:56:48.133Z,26.36
2022-10-30T00:56:58.254Z,26.36
2022-10-30T00:57:08.369Z,26.36
2022-10-30T00:57:18.490Z,26.37
2022-10-30T00:57:28.620Z,26.36
2022-10-30T00:57:38.746Z,26.37
2022-10-30T00:57:48.742Z,26.37
2022-10-30T00:57:58.990Z,26.36
2022-10-30T00:58:09.106Z,26.37
2022-10-30T00:58:19.225Z,26.36
2022-10-30T00:58:29.357Z,26.37
2022-10-30T00:58:39.510Z,26.37
2022-10-30T00:58:49.480Z,26.37
2022-10-30T00:58:59.734Z,26.37
2022-10-30T00:59:09.848Z,26.37
2022-10-30T00:59:19.966Z,26.37
2022-10-30T00:59:30.099Z,26.37
2022-10-30T00:59:40.096Z,26.37
2022-10-30T00:59:50.093Z,26.38
2022-10-30T01:00:00.468Z,26.37
2022-10-30T01:00:10.469Z,26.37
2022-10-30T01:00:20.590Z,26.37
2022-10-30T01:00:30.838Z,26.37
2022-10-30T01:00:40.972Z,26.37
2022-10-30T01:00:51.145Z,26.37
2022-10-30T01:01:01.301Z,26.37
2022-10-30T01:01:11.228Z,26.36
2022-10-30T01:01:21.346Z,26.37
2022-10-30T01:01:31.409Z,26.36
2022-10-30T01:01:41.571Z,26.37
2022-10-30T01:01:51.677Z,26.36
2022-10-30T01:02:01.743Z,26.37
2022-10-30T01:02:11.751Z,26.36
2022-10-30T01:02:21.902Z,26.36
2022-10-30T01:02:31.937Z,26.37
2022-10-30T01:02:41.834Z,26.37
2022-10-30T01:02:51.884Z,26.37
2022-10-30T01:03:02.169Z,26.37
2022-10-30T01:03:12.027Z,26.37
2022-10-30T01:03:22.149Z,26.37
2022-10-30T01:03:32.266Z,26.38
2022-10-30T01:03:42.386Z,26.38
2022-10-30T01:03:52.386Z,26.38
2022-10-30T01:04:02.502Z,26.38
2022-10-30T01:04:12.633Z,26.39
2022-10-30T01:04:27.415Z,26.38
2022-10-30T01:04:32.629Z,26.34
2022-10-30T01:04:42.746Z,26.34
2022-10-30T01:04:52.871Z,26.36
2022-10-30T01:05:03.075Z,26.36
2022-10-30T01:05:13.341Z,26.35
2022-10-30T01:05:23.169Z,26.36
2022-10-30T01:05:33.283Z,26.36
2022-10-30T01:05:43.400Z,26.37
2022-10-30T01:05:53.585Z,26.37
2022-10-30T01:06:03.571Z,26.37
2022-10-30T01:06:13.568Z,26.37
2022-10-30T01:06:23.821Z,26.37
2022-10-30T01:06:33.940Z,26.38
2022-10-30T01:06:43.937Z,26.37
2022-10-30T01:06:54.195Z,26.37
2022-10-30T01:07:04.189Z,26.38
2022-10-30T01:07:14.313Z,26.37
2022-10-30T01:07:24.559Z,26.37
2022-10-30T01:07:34.675Z,26.37
2022-10-30T01:07:44.802Z,26.38
2022-10-30T01:07:55.123Z,26.37
2022-10-30T01:08:04.986Z,26.38
2022-10-30T01:08:15.170Z,26.38
2022-10-30T01:08:25.505Z,26.38
2022-10-30T01:08:35.591Z,26.37
2022-10-30T01:08:45.666Z,26.38
2022-10-30T01:08:59.836Z,26.39
2022-10-30T01:09:06.049Z,26.35
2022-10-30T01:09:16.368Z,26.36
2022-10-30T01:09:26.278Z,26.36
2022-10-30T01:09:36.393Z,26.36
2022-10-30T01:09:46.520Z,26.37
2022-10-30T01:09:56.636Z,26.38
2022-10-30T01:10:06.751Z,26.38
2022-10-30T01:10:16.877Z,26.38
2022-10-30T01:10:26.999Z,26.38
2022-10-30T01:10:37.132Z,26.39
2022-10-30T01:10:47.259Z,26.39
2022-10-30T01:10:57.379Z,26.39
2022-10-30T01:11:07.491Z,26.40
2022-10-30T01:11:17.612Z,26.39
2022-10-30T01:11:27.725Z,26.40
2022-10-30T01:11:37.844Z,26.40
2022-10-30T01:11:47.978Z,26.39
2022-10-30T01:11:58.133Z,26.40
2022-10-30T01:12:08.132Z,26.40
2022-10-30T01:12:18.379Z,26.39
2022-10-30T01:12:28.377Z,26.39
2022-10-30T01:12:38.493Z,26.39
2022-10-30T01:12:48.745Z,26.40
2022-10-30T01:12:58.868Z,26.39
2022-10-30T01:13:08.854Z,26.40
2022-10-30T01:13:19.109Z,26.40
2022-10-30T01:13:29.109Z,26.40
2022-10-30T01:13:39.222Z,26.39
2022-10-30T01:13:49.471Z,26.39
2022-10-30T01:13:59.593Z,26.39
2022-10-30T01:14:09.724Z,26.39
2022-10-30T01:14:19.851Z,26.39
2022-10-30T01:14:29.852Z,26.38
2022-10-30T01:14:39.859Z,26.39
2022-10-30T01:14:50.235Z,26.38
2022-10-30T01:15:00.384Z,26.38
2022-10-30T01:15:10.361Z,26.38
2022-10-30T01:15:20.606Z,26.38
2022-10-30T01:15:30.723Z,26.38
2022-10-30T01:15:40.842Z,26.38
2022-10-30T01:15:50.971Z,26.37
2022-10-30T01:16:01.086Z,26.37
2022-10-30T01:16:11.202Z,26.38
2022-10-30T01:16:21.326Z,26.38
2022-10-30T01:16:31.328Z,26.37
2022-10-30T01:16:41.441Z,26.38
2022-10-30T01:16:51.687Z,26.37
2022-10-30T01:17:01.803Z,26.37
2022-10-30T01:17:11.917Z,26.37
2022-10-30T01:17:22.048Z,26.37
2022-10-30T01:17:32.039Z,26.37
2022-10-30T01:17:42.166Z,26.36
2022-10-30T01:17:52.432Z,26.37
2022-10-30T01:18:02.430Z,26.38
2022-10-30T01:18:12.540Z,26.38
2022-10-30T01:18:22.795Z,26.38
2022-10-30T01:18:32.906Z,26.37
2022-10-30T01:18:43.024Z,26.38
2022-10-30T01:18:53.155Z,26.37
2022-10-30T01:19:03.169Z,26.37
2022-10-30T01:19:13.153Z,26.38
2022-10-30T01:19:23.527Z,26.38
2022-10-30T01:19:33.642Z,26.39
2022-10-30T01:19:43.768Z,26.39
2022-10-30T01:19:53.951Z,26.39
2022-10-30T01:20:03.958Z,26.39
2022-10-30T01:20:14.075Z,26.39
2022-10-30T01:20:24.328Z,26.39
2022-10-30T01:20:34.443Z,26.38
2022-10-30T01:20:44.462Z,26.38
2022-10-30T01:20:54.730Z,26.39
2022-10-30T01:21:04.746Z,26.39
2022-10-30T01:21:14.836Z,26.39
2022-10-30T01:21:25.083Z,26.39
2022-10-30T01:21:35.199Z,26.39
2022-10-30T01:21:45.317Z,26.39
2022-10-30T01:21:55.452Z,26.39
2022-10-30T01:22:05.447Z,26.39
2022-10-30T01:22:15.561Z,26.39
2022-10-30T01:22:25.806Z,26.39
2022-10-30T01:22:35.923Z,26.38
2022-10-30T01:22:46.040Z,26.39
2022-10-30T01:22:56.499Z,26.39
2022-10-30T01:23:06.310Z,26.38
2022-10-30T01:23:16.301Z,26.38
2022-10-30T01:23:26.679Z,26.39
2022-10-30T01:23:36.679Z,26.38
2022-10-30T01:23:46.796Z,26.39
2022-10-30T01:23:57.044Z,26.39
2022-10-30T01:24:07.176Z,26.40
2022-10-30T01:24:17.173Z,26.40
2022-10-30T01:24:27.420Z,26.41
2022-10-30T01:24:37.425Z,26.41
2022-10-30T01:24:47.541Z,26.40
2022-10-30T01:24:57.804Z,26.41
2022-10-30T01:25:07.913Z,26.41
2022-10-30T01:25:17.910Z,26.41
2022-10-30T01:25:28.161Z,26.41
2022-10-30T01:25:38.160Z,26.42
2022-10-30T01:25:48.270Z,26.42
2022-10-30T01:25:58.526Z,26.43
2022-10-30T01:26:08.642Z,26.43
2022-10-30T01:26:18.755Z,26.43
2022-10-30T01:26:28.888Z,26.43
2022-10-30T01:26:38.884Z,26.43
2022-10-30T01:26:49.003Z,26.44
2022-10-30T01:26:59.245Z,26.44
2022-10-30T01:27:09.368Z,26.44
2022-10-30T01:27:19.364Z,26.44
2022-10-30T01:27:29.615Z,26.44
2022-10-30T01:27:39.728Z,26.44
2022-10-30T01:27:49.843Z,26.44
2022-10-30T01:27:59.973Z,26.43
2022-10-30T01:28:10.090Z,26.43
2022-10-30T01:28:20.089Z,26.43
2022-10-30T01:28:30.337Z,26.42
2022-10-30T01:28:40.450Z,26.42
2022-10-30T01:28:50.565Z,26.42
2022-10-30T01:29:00.697Z,26.41
2022-10-30T01:29:10.822Z,26.41
2022-10-30T01:29:20.937Z,26.41
2022-10-30T01:29:31.061Z,26.40
2022-10-30T01:29:41.061Z,26.40
2022-10-30T01:29:51.170Z,26.39
2022-10-30T01:30:01.424Z,26.39
2022-10-30T01:30:11.538Z,26.39
2022-10-30T01:30:21.540Z,26.39
2022-10-30T01:30:31.791Z,26.39
2022-10-30T01:30:41.905Z,26.38
2022-10-30T01:30:52.017Z,26.37
2022-10-30T01:31:02.139Z,26.37
2022-10-30T01:31:12.293Z,26.37
2022-10-30T01:31:22.260Z,26.36
2022-10-30T01:31:32.508Z,26.36
2022-10-30T01:31:42.506Z,26.36
2022-10-30T01:31:52.623Z,26.36
2022-10-30T01:32:02.918Z,26.35
2022-10-30T01:32:13.035Z,26.35
2022-10-30T01:32:23.147Z,26.35
2022-10-30T01:32:33.270Z,26.35
2022-10-30T01:32:43.388Z,26.34
2022-10-30T01:32:53.503Z,26.33
2022-10-30T01:33:03.627Z,26.33
2022-10-30T01:33:13.741Z,26.33
2022-10-30T01:33:23.857Z,26.32
2022-10-30T01:33:33.986Z,26.32
2022-10-30T01:33:43.984Z,26.33
2022-10-30T01:33:54.101Z,26.32
2022-10-30T01:34:04.356Z,26.31
2022-10-30T01:34:14.472Z,26.32
2022-10-30T01:34:24.470Z,26.31
2022-10-30T01:34:34.813Z,26.31
2022-10-30T01:34:44.818Z,26.31
2022-10-30T01:34:54.928Z,26.31
2022-10-30T01:35:05.183Z,26.29
2022-10-30T01:35:15.300Z,26.29
2022-10-30T01:35:25.414Z,26.29
2022-10-30T01:35:35.537Z,26.29
2022-10-30T01:35:45.651Z,26.29
2022-10-30T01:35:55.771Z,26.29
2022-10-30T01:36:05.890Z,26.29
2022-10-30T01:36:16.029Z,26.29
2022-10-30T01:36:26.006Z,26.28
2022-10-30T01:36:36.259Z,26.28
2022-10-30T01:36:46.373Z,26.28
2022-10-30T01:36:56.488Z,26.27
2022-10-30T01:37:06.607Z,26.27
2022-10-30T01:37:16.687Z,26.26
2022-10-30T01:37:26.801Z,26.26
2022-10-30T01:37:37.049Z,26.27
2022-10-30T01:37:47.163Z,26.27
2022-10-30T01:37:57.712Z,26.26
2022-10-30T01:38:07.557Z,26.25
2022-10-30T01:38:17.677Z,26.25
2022-10-30T01:38:27.795Z,26.25
2022-10-30T01:38:37.915Z,26.24
2022-10-30T01:38:48.031Z,26.25
2022-10-30T01:38:58.145Z,26.24
2022-10-30T01:39:08.267Z,26.23
2022-10-30T01:39:18.385Z,26.23
2022-10-30T01:39:28.496Z,26.23
2022-10-30T01:39:38.620Z,26.23
2022-10-30T01:39:48.733Z,26.22
2022-10-30T01:39:58.850Z,26.23
2022-10-30T01:40:08.972Z,26.22
2022-10-30T01:40:19.085Z,26.23
2022-10-30T01:40:29.201Z,26.23
2022-10-30T01:40:39.329Z,26.22
2022-10-30T01:40:49.443Z,26.22
2022-10-30T01:40:59.559Z,26.22
2022-10-30T01:41:09.686Z,26.22
2022-10-30T01:41:19.802Z,26.22
2022-10-30T01:41:29.804Z,26.21
2022-10-30T01:41:40.049Z,26.21
2022-10-30T01:41:50.171Z,26.21
2022-10-30T01:42:00.287Z,26.20
2022-10-30T01:42:10.416Z,26.20
2022-10-30T01:42:20.525Z,26.20
2022-10-30T01:42:30.641Z,26.20
2022-10-30T01:42:40.781Z,26.20
2022-10-30T01:42:50.775Z,26.19
2022-10-30T01:43:00.891Z,26.20
2022-10-30T01:43:11.144Z,26.19
2022-10-30T01:43:21.263Z,26.19
2022-10-30T01:43:31.375Z,26.20
2022-10-30T01:43:41.498Z,26.19
2022-10-30T01:43:51.496Z,26.19
2022-10-30T01:44:01.615Z,26.18
2022-10-30T01:44:11.863Z,26.19
2022-10-30T01:44:21.872Z,26.18
2022-10-30T01:44:31.987Z,26.18
2022-10-30T01:44:42.238Z,26.18
2022-10-30T01:44:52.233Z,26.17
2022-10-30T01:45:02.351Z,26.17
2022-10-30T01:45:12.608Z,26.17
2022-10-30T01:45:22.736Z,26.17
2022-10-30T01:45:32.772Z,26.16
2022-10-30T01:45:43.002Z,26.16
2022-10-30T01:45:53.117Z,26.16
2022-10-30T01:46:03.232Z,26.16
2022-10-30T01:46:13.354Z,26.15
2022-10-30T01:46:23.470Z,26.16
2022-10-30T01:46:33.585Z,26.15
2022-10-30T01:46:43.709Z,26.15
2022-10-30T01:46:53.832Z,26.15
2022-10-30T01:47:03.963Z,26.15
2022-10-30T01:47:14.085Z,26.15
2022-10-30T01:47:24.083Z,26.15
2022-10-30T01:47:34.200Z,26.15
2022-10-30T01:47:44.451Z,26.14
2022-10-30T01:47:54.769Z,26.14
2022-10-30T01:48:04.586Z,26.14
2022-10-30T01:48:14.841Z,26.14
2022-10-30T01:48:24.958Z,26.13
2022-10-30T01:48:35.073Z,26.12
2022-10-30T01:48:45.200Z,26.12
2022-10-30T01:48:55.314Z,26.12
2022-10-30T01:49:05.448Z,26.12
2022-10-30T01:49:15.607Z,26.12
2022-10-30T01:49:25.592Z,26.12
2022-10-30T01:49:35.706Z,26.12
2022-10-30T01:49:45.966Z,26.11
2022-10-30T01:49:56.083Z,26.11
2022-10-30T01:50:06.202Z,26.11
2022-10-30T01:50:16.330Z,26.10
2022-10-30T01:50:26.445Z,26.10
2022-10-30T01:50:36.558Z,26.10
2022-10-30T01:50:46.681Z,26.10
2022-10-30T01:50:56.798Z,26.10
2022-10-30T01:51:06.797Z,26.09
2022-10-30T01:51:17.055Z,26.09
2022-10-30T01:51:27.067Z,26.09
2022-10-30T01:51:37.168Z,26.08
2022-10-30T01:51:47.417Z,26.08
2022-10-30T01:51:57.537Z,26.08
2022-10-30T01:52:07.656Z,26.07
2022-10-30T01:52:17.774Z,26.08
2022-10-30T01:52:27.894Z,26.07
2022-10-30T01:52:38.006Z,26.07
2022-10-30T01:52:48.123Z,26.07
2022-10-30T01:52:58.454Z,26.07
2022-10-30T01:53:08.314Z,26.07
2022-10-30T01:53:18.559Z,26.06
2022-10-30T01:53:28.674Z,26.06
2022-10-30T01:53:38.795Z,26.06
2022-10-30T01:53:48.911Z,26.06
2022-10-30T01:53:59.028Z,26.06
2022-10-30T01:54:09.141Z,26.06
2022-10-30T01:54:19.288Z,26.06
2022-10-30T01:54:29.281Z,26.05
2022-10-30T01:54:39.399Z,26.05
2022-10-30T01:54:49.643Z,26.05
2022-10-30T01:54:59.764Z,26.05
2022-10-30T01:55:09.901Z,26.04
2022-10-30T01:55:20.027Z,26.05
2022-10-30T01:55:30.024Z,26.05
2022-10-30T01:55:40.143Z,26.04
2022-10-30T01:55:50.392Z,26.05
2022-10-30T01:56:00.518Z,26.04
2022-10-30T01:56:10.509Z,26.03
2022-10-30T01:56:20.759Z,26.03
2022-10-30T01:56:30.874Z,26.04
2022-10-30T01:56:40.998Z,26.04
2022-10-30T01:56:51.125Z,26.03
2022-10-30T01:57:01.242Z,26.03
2022-10-30T01:57:11.356Z,26.02
2022-10-30T01:57:21.482Z,26.03
2022-10-30T01:57:31.592Z,26.02
2022-10-30T01:57:41.709Z,26.02
2022-10-30T01:57:51.835Z,26.02
2022-10-30T01:58:01.958Z,26.01
2022-10-30T01:58:12.069Z,26.01
2022-10-30T01:58:22.190Z,26.01
2022-10-30T01:58:32.319Z,26.01
2022-10-30T01:58:42.532Z,26.01
2022-10-30T01:58:52.652Z,26.00
2022-10-30T01:59:02.768Z,26.00
2022-10-30T01:59:12.884Z,26.00
2022-10-30T01:59:23.006Z,26.00
2022-10-30T01:59:33.118Z,26.00
2022-10-30T01:59:43.234Z,26.00
2022-10-30T01:59:53.354Z,26.00
2022-10-30T02:00:03.485Z,26.00
2022-10-30T02:00:13.495Z,25.99
2022-10-30T02:00:23.730Z,25.99
2022-10-30T02:00:33.729Z,25.99
2022-10-30T02:00:43.876Z,25.98
2022-10-30T02:00:54.199Z,25.99
2022-10-30T02:01:04.318Z,25.98
2022-10-30T02:01:14.485Z,25.98
2022-10-30T02:01:24.780Z,25.98
2022-10-30T02:01:34.845Z,25.98
2022-10-30T02:01:44.967Z,25.98
2022-10-30T02:01:55.059Z,25.97
2022-10-30T02:02:05.217Z,25.97
2022-10-30T02:02:15.221Z,25.97
2022-10-30T02:02:25.380Z,25.97
2022-10-30T02:02:35.416Z,25.96
2022-10-30T02:02:45.349Z,25.96
2022-10-30T02:02:55.712Z,25.96
2022-10-30T02:03:05.685Z,25.95
2022-10-30T02:03:15.683Z,25.95
2022-10-30T02:03:25.802Z,25.95
2022-10-30T02:03:36.057Z,25.95
2022-10-30T02:03:46.171Z,25.95
2022-10-30T02:03:56.381Z,25.95
2022-10-30T02:04:06.504Z,25.95
2022-10-30T02:04:16.615Z,25.95
2022-10-30T02:04:26.747Z,25.94
2022-10-30T02:04:36.877Z,25.94
2022-10-30T02:04:46.995Z,25.95
2022-10-30T02:04:57.106Z,25.94
2022-10-30T02:05:07.229Z,25.94
2022-10-30T02:05:17.343Z,25.93
2022-10-30T02:05:27.459Z,25.94
2022-10-30T02:05:37.579Z,25.94
2022-10-30T02:05:47.696Z,25.93
2022-10-30T02:05:57.811Z,25.94
2022-10-30T02:06:07.935Z,25.94
2022-10-30T02:06:17.930Z,25.93
2022-10-30T02:06:28.051Z,25.93
2022-10-30T02:06:38.317Z,25.93
2022-10-30T02:06:48.417Z,25.93
2022-10-30T02:06:58.415Z,25.92
2022-10-30T02:07:08.665Z,25.92
2022-10-30T02:07:18.776Z,25.93
2022-10-30T02:07:28.901Z,25.93
2022-10-30T02:07:39.030Z,25.92
2022-10-30T02:07:49.152Z,25.92
2022-10-30T02:07:59.592Z,25.92
2022-10-30T02:08:09.464Z,25.91
2022-10-30T02:08:19.462Z,25.92
2022-10-30T02:08:29.578Z,25.90
2022-10-30T02:08:39.837Z,25.90
2022-10-30T02:08:49.959Z,25.90
2022-10-30T02:08:59.952Z,25.90
2022-10-30T02:09:10.209Z,25.90
2022-10-30T02:09:20.205Z,25.90
2022-10-30T02:09:30.322Z,25.90
2022-10-30T02:09:40.572Z,25.89
2022-10-30T02:09:50.567Z,25.90
2022-10-30T02:10:00.687Z,25.89
2022-10-30T02:10:10.934Z,25.89
2022-10-30T02:10:20.928Z,25.89
2022-10-30T02:10:31.053Z,25.89
2022-10-30T02:10:41.304Z,25.89